sensor_id;sensor_type;location;lat;lon;timestamp;pressure;altitude;pressure_sealevel;temperature
69597;BMP180;56802;51.184;-115.558;2022-09-24T00:01:35;86285.00;;;13.74
69597;BMP180;56802;51.184;-115.558;2022-09-24T00:04:09;86282.20;;;13.70
69597;BMP180;56802;51.184;-115.558;2022-09-24T00:06:43;86280.20;;;13.70
69597;BMP180;56802;51.184;-115.558;2022-09-24T00:09:19;86273.60;;;13.70
69597;BMP180;56802;51.184;-115.558;2022-09-24T00:11:50;86277.00;;;13.80
69597;BMP180;56802;51.184;-115.558;2022-09-24T00:14:21;86270.20;;;13.80
69597;BMP180;56802;51.184;-115.558;2022-09-24T00:16:50;86265.20;;;13.80
69597;BMP180;56802;51.184;-115.558;2022-09-24T00:19:19;86270.20;;;13.80
69597;BMP180;56802;51.184;-115.558;2022-09-24T00:21:49;86267.80;;;13.80
69597;BMP180;56802;51.184;-115.558;2022-09-24T00:24:19;86281.00;;;13.70
69597;BMP180;56802;51.184;-115.558;2022-09-24T00:27:06;86282.80;;;13.62
69597;BMP180;56802;51.184;-115.558;2022-09-24T00:29:36;86278.60;;;13.60
69597;BMP180;56802;51.184;-115.558;2022-09-24T00:32:05;86285.00;;;13.56
69597;BMP180;56802;51.184;-115.558;2022-09-24T00:34:35;86277.80;;;13.50
69597;BMP180;56802;51.184;-115.558;2022-09-24T00:37:04;86286.40;;;13.50
69597;BMP180;56802;51.184;-115.558;2022-09-24T00:39:34;86284.80;;;13.48
69597;BMP180;56802;51.184;-115.558;2022-09-24T00:42:03;86286.20;;;13.42
69597;BMP180;56802;51.184;-115.558;2022-09-24T00:44:44;86291.00;;;13.40
69597;BMP180;56802;51.184;-115.558;2022-09-24T00:47:39;86288.60;;;13.40
69597;BMP180;56802;51.184;-115.558;2022-09-24T00:50:29;86285.00;;;13.38
69597;BMP180;56802;51.184;-115.558;2022-09-24T00:53:15;86287.00;;;13.30
69597;BMP180;56802;51.184;-115.558;2022-09-24T00:55:50;86278.20;;;13.30
69597;BMP180;56802;51.184;-115.558;2022-09-24T00:58:23;86281.60;;;13.30
69597;BMP180;56802;51.184;-115.558;2022-09-24T01:01:03;86287.20;;;13.30
69597;BMP180;56802;51.184;-115.558;2022-09-24T01:03:37;86289.80;;;13.20
69597;BMP180;56802;51.184;-115.558;2022-09-24T01:06:09;86291.80;;;13.20
69597;BMP180;56802;51.184;-115.558;2022-09-24T01:08:40;86300.20;;;13.20
69597;BMP180;56802;51.184;-115.558;2022-09-24T01:11:18;86292.00;;;13.10
69597;BMP180;56802;51.184;-115.558;2022-09-24T01:17:30;86299.00;;;12.92
69597;BMP180;56802;51.184;-115.558;2022-09-24T01:32:00;86310.80;;;12.70
69597;BMP180;56802;51.184;-115.558;2022-09-24T01:34:43;86314.80;;;12.60
69597;BMP180;56802;51.184;-115.558;2022-09-24T01:37:18;86321.80;;;12.52
69597;BMP180;56802;51.184;-115.558;2022-09-24T01:39:53;86316.80;;;12.50
69597;BMP180;56802;51.184;-115.558;2022-09-24T01:42:28;86315.80;;;12.50
69597;BMP180;56802;51.184;-115.558;2022-09-24T01:45:00;86322.20;;;12.50
69597;BMP180;56802;51.184;-115.558;2022-09-24T01:47:40;86325.40;;;12.48
69597;BMP180;56802;51.184;-115.558;2022-09-24T01:50:14;86335.20;;;12.42
69597;BMP180;56802;51.184;-115.558;2022-09-24T01:53:12;86332.80;;;12.40
69597;BMP180;56802;51.184;-115.558;2022-09-24T01:55:46;86334.40;;;12.40
69597;BMP180;56802;51.184;-115.558;2022-09-24T01:58:50;86342.00;;;12.40
69597;BMP180;56802;51.184;-115.558;2022-09-24T02:01:29;86346.80;;;12.30
69597;BMP180;56802;51.184;-115.558;2022-09-24T02:04:11;86346.60;;;12.30
69597;BMP180;56802;51.184;-115.558;2022-09-24T02:06:55;86344.40;;;12.30
69597;BMP180;56802;51.184;-115.558;2022-09-24T02:09:31;86354.60;;;12.30
69597;BMP180;56802;51.184;-115.558;2022-09-24T02:12:29;86351.80;;;12.30
69597;BMP180;56802;51.184;-115.558;2022-09-24T02:15:14;86354.40;;;12.30
69597;BMP180;56802;51.184;-115.558;2022-09-24T02:17:50;86353.20;;;12.26
69597;BMP180;56802;51.184;-115.558;2022-09-24T02:20:25;86354.40;;;12.26
69597;BMP180;56802;51.184;-115.558;2022-09-24T02:22:56;86346.40;;;12.24
69597;BMP180;56802;51.184;-115.558;2022-09-24T02:28:18;86358.60;;;12.20
69597;BMP180;56802;51.184;-115.558;2022-09-24T02:31:10;86359.20;;;12.20
69597;BMP180;56802;51.184;-115.558;2022-09-24T02:33:45;86362.00;;;12.20
69597;BMP180;56802;51.184;-115.558;2022-09-24T02:36:36;86358.20;;;12.14
69597;BMP180;56802;51.184;-115.558;2022-09-24T02:39:06;86360.60;;;12.10
69597;BMP180;56802;51.184;-115.558;2022-09-24T02:41:36;86360.00;;;12.10
69597;BMP180;56802;51.184;-115.558;2022-09-24T02:44:06;86357.00;;;12.06
69597;BMP180;56802;51.184;-115.558;2022-09-24T02:46:35;86362.40;;;12.00
69597;BMP180;56802;51.184;-115.558;2022-09-24T02:49:13;86370.60;;;12.00
69597;BMP180;56802;51.184;-115.558;2022-09-24T02:51:43;86366.60;;;11.94
69597;BMP180;56802;51.184;-115.558;2022-09-24T02:54:14;86364.40;;;11.90
69597;BMP180;56802;51.184;-115.558;2022-09-24T02:56:43;86369.80;;;11.90
69597;BMP180;56802;51.184;-115.558;2022-09-24T02:59:12;86364.00;;;11.90
69597;BMP180;56802;51.184;-115.558;2022-09-24T03:01:41;86373.80;;;11.90
69597;BMP180;56802;51.184;-115.558;2022-09-24T03:04:12;86370.40;;;11.80
69597;BMP180;56802;51.184;-115.558;2022-09-24T03:06:42;86369.60;;;11.80
69597;BMP180;56802;51.184;-115.558;2022-09-24T03:09:12;86376.60;;;11.80
69597;BMP180;56802;51.184;-115.558;2022-09-24T03:11:41;86377.40;;;11.70
69597;BMP180;56802;51.184;-115.558;2022-09-24T03:14:11;86378.20;;;11.70
69597;BMP180;56802;51.184;-115.558;2022-09-24T03:16:40;86372.20;;;11.70
69597;BMP180;56802;51.184;-115.558;2022-09-24T03:19:09;86372.00;;;11.70
69597;BMP180;56802;51.184;-115.558;2022-09-24T03:21:38;86376.40;;;11.70
69597;BMP180;56802;51.184;-115.558;2022-09-24T03:24:08;86380.80;;;11.70
69597;BMP180;56802;51.184;-115.558;2022-09-24T03:26:37;86379.40;;;11.70
69597;BMP180;56802;51.184;-115.558;2022-09-24T03:29:08;86385.40;;;11.70
69597;BMP180;56802;51.184;-115.558;2022-09-24T03:31:38;86383.80;;;11.70
69597;BMP180;56802;51.184;-115.558;2022-09-24T03:34:07;86392.20;;;11.70
69597;BMP180;56802;51.184;-115.558;2022-09-24T03:36:36;86389.20;;;11.70
69597;BMP180;56802;51.184;-115.558;2022-09-24T03:39:05;86390.60;;;11.70
69597;BMP180;56802;51.184;-115.558;2022-09-24T03:41:35;86395.00;;;11.72
69597;BMP180;56802;51.184;-115.558;2022-09-24T03:44:04;86397.00;;;11.78
69597;BMP180;56802;51.184;-115.558;2022-09-24T03:46:34;86391.60;;;11.80
69597;BMP180;56802;51.184;-115.558;2022-09-24T03:49:03;86390.00;;;11.80
69597;BMP180;56802;51.184;-115.558;2022-09-24T03:51:32;86393.00;;;11.80
69597;BMP180;56802;51.184;-115.558;2022-09-24T03:54:02;86395.00;;;11.80
69597;BMP180;56802;51.184;-115.558;2022-09-24T03:56:31;86393.80;;;11.80
69597;BMP180;56802;51.184;-115.558;2022-09-24T03:59:01;86394.20;;;11.80
69597;BMP180;56802;51.184;-115.558;2022-09-24T04:01:30;86394.40;;;11.80
69597;BMP180;56802;51.184;-115.558;2022-09-24T04:04:00;86400.00;;;11.80
69597;BMP180;56802;51.184;-115.558;2022-09-24T04:06:31;86402.40;;;11.80
69597;BMP180;56802;51.184;-115.558;2022-09-24T04:09:00;86401.00;;;11.80
69597;BMP180;56802;51.184;-115.558;2022-09-24T04:11:29;86400.60;;;11.80
69597;BMP180;56802;51.184;-115.558;2022-09-24T04:14:01;86398.40;;;11.80
69597;BMP180;56802;51.184;-115.558;2022-09-24T04:16:30;86408.00;;;11.80
69597;BMP180;56802;51.184;-115.558;2022-09-24T04:19:00;86404.40;;;11.80
69597;BMP180;56802;51.184;-115.558;2022-09-24T04:21:29;86413.20;;;11.80
69597;BMP180;56802;51.184;-115.558;2022-09-24T04:23:59;86408.60;;;11.80
69597;BMP180;56802;51.184;-115.558;2022-09-24T04:26:28;86402.40;;;11.80
69597;BMP180;56802;51.184;-115.558;2022-09-24T04:28:58;86405.20;;;11.80
69597;BMP180;56802;51.184;-115.558;2022-09-24T04:31:27;86407.80;;;11.80
69597;BMP180;56802;51.184;-115.558;2022-09-24T04:33:56;86408.00;;;11.80
69597;BMP180;56802;51.184;-115.558;2022-09-24T04:36:26;86404.40;;;11.80
69597;BMP180;56802;51.184;-115.558;2022-09-24T04:38:55;86409.20;;;11.76
69597;BMP180;56802;51.184;-115.558;2022-09-24T04:41:25;86418.20;;;11.72
69597;BMP180;56802;51.184;-115.558;2022-09-24T04:43:55;86414.60;;;11.70
69597;BMP180;56802;51.184;-115.558;2022-09-24T04:46:25;86419.40;;;11.70
69597;BMP180;56802;51.184;-115.558;2022-09-24T04:48:54;86417.40;;;11.70
69597;BMP180;56802;51.184;-115.558;2022-09-24T04:51:24;86416.00;;;11.70
69597;BMP180;56802;51.184;-115.558;2022-09-24T04:53:53;86413.00;;;11.70
69597;BMP180;56802;51.184;-115.558;2022-09-24T04:56:22;86412.80;;;11.70
69597;BMP180;56802;51.184;-115.558;2022-09-24T04:58:51;86411.20;;;11.70
69597;BMP180;56802;51.184;-115.558;2022-09-24T05:01:20;86409.20;;;11.70
69597;BMP180;56802;51.184;-115.558;2022-09-24T05:03:50;86414.40;;;11.70
69597;BMP180;56802;51.184;-115.558;2022-09-24T05:06:20;86410.40;;;11.70
69597;BMP180;56802;51.184;-115.558;2022-09-24T05:08:50;86408.20;;;11.70
69597;BMP180;56802;51.184;-115.558;2022-09-24T05:11:19;86414.80;;;11.62
69597;BMP180;56802;51.184;-115.558;2022-09-24T05:13:48;86416.80;;;11.60
69597;BMP180;56802;51.184;-115.558;2022-09-24T05:16:18;86419.80;;;11.60
69597;BMP180;56802;51.184;-115.558;2022-09-24T05:18:47;86422.40;;;11.60
69597;BMP180;56802;51.184;-115.558;2022-09-24T05:21:17;86419.80;;;11.60
69597;BMP180;56802;51.184;-115.558;2022-09-24T05:23:46;86422.00;;;11.58
69597;BMP180;56802;51.184;-115.558;2022-09-24T05:26:15;86426.00;;;11.52
69597;BMP180;56802;51.184;-115.558;2022-09-24T05:29:02;86432.60;;;11.50
69597;BMP180;56802;51.184;-115.558;2022-09-24T05:31:31;86430.40;;;11.50
69597;BMP180;56802;51.184;-115.558;2022-09-24T05:34:01;86433.20;;;11.50
69597;BMP180;56802;51.184;-115.558;2022-09-24T05:36:31;86437.80;;;11.50
69597;BMP180;56802;51.184;-115.558;2022-09-24T05:39:00;86441.60;;;11.48
69597;BMP180;56802;51.184;-115.558;2022-09-24T05:41:30;86439.00;;;11.42
69597;BMP180;56802;51.184;-115.558;2022-09-24T05:43:59;86446.00;;;11.42
69597;BMP180;56802;51.184;-115.558;2022-09-24T05:46:29;86446.40;;;11.42
69597;BMP180;56802;51.184;-115.558;2022-09-24T05:48:59;86453.80;;;11.40
69597;BMP180;56802;51.184;-115.558;2022-09-24T05:51:28;86459.40;;;11.44
69597;BMP180;56802;51.184;-115.558;2022-09-24T05:53:57;86462.20;;;11.40
69597;BMP180;56802;51.184;-115.558;2022-09-24T05:56:27;86456.40;;;11.48
69597;BMP180;56802;51.184;-115.558;2022-09-24T05:58:57;86451.20;;;11.50
69597;BMP180;56802;51.184;-115.558;2022-09-24T06:01:29;86452.00;;;11.50
69597;BMP180;56802;51.184;-115.558;2022-09-24T06:03:58;86456.60;;;11.48
69597;BMP180;56802;51.184;-115.558;2022-09-24T06:06:35;86453.80;;;11.50
69597;BMP180;56802;51.184;-115.558;2022-09-24T06:09:04;86456.20;;;11.40
69597;BMP180;56802;51.184;-115.558;2022-09-24T06:11:36;86449.40;;;11.40
69597;BMP180;56802;51.184;-115.558;2022-09-24T06:14:07;86447.20;;;11.40
69597;BMP180;56802;51.184;-115.558;2022-09-24T06:16:37;86449.20;;;11.40
69597;BMP180;56802;51.184;-115.558;2022-09-24T06:19:07;86448.20;;;11.40
69597;BMP180;56802;51.184;-115.558;2022-09-24T06:21:37;86439.80;;;11.40
69597;BMP180;56802;51.184;-115.558;2022-09-24T06:24:06;86435.00;;;11.40
69597;BMP180;56802;51.184;-115.558;2022-09-24T06:26:35;86431.80;;;11.40
69597;BMP180;56802;51.184;-115.558;2022-09-24T06:29:05;86426.80;;;11.40
69597;BMP180;56802;51.184;-115.558;2022-09-24T06:31:34;86429.80;;;11.40
69597;BMP180;56802;51.184;-115.558;2022-09-24T06:34:04;86433.60;;;11.40
69597;BMP180;56802;51.184;-115.558;2022-09-24T06:36:33;86438.20;;;11.36
69597;BMP180;56802;51.184;-115.558;2022-09-24T06:39:03;86436.00;;;11.30
69597;BMP180;56802;51.184;-115.558;2022-09-24T06:41:33;86430.20;;;11.30
69597;BMP180;56802;51.184;-115.558;2022-09-24T06:44:02;86436.40;;;11.30
69597;BMP180;56802;51.184;-115.558;2022-09-24T06:46:31;86433.60;;;11.30
69597;BMP180;56802;51.184;-115.558;2022-09-24T06:49:03;86434.40;;;11.30
69597;BMP180;56802;51.184;-115.558;2022-09-24T06:51:33;86439.00;;;11.30
69597;BMP180;56802;51.184;-115.558;2022-09-24T06:54:27;86442.60;;;11.30
69597;BMP180;56802;51.184;-115.558;2022-09-24T06:56:56;86451.20;;;11.30
69597;BMP180;56802;51.184;-115.558;2022-09-24T06:59:26;86448.20;;;11.30
69597;BMP180;56802;51.184;-115.558;2022-09-24T07:01:56;86446.00;;;11.30
69597;BMP180;56802;51.184;-115.558;2022-09-24T07:04:25;86444.40;;;11.30
69597;BMP180;56802;51.184;-115.558;2022-09-24T07:06:55;86450.20;;;11.30
69597;BMP180;56802;51.184;-115.558;2022-09-24T07:09:43;86446.40;;;11.30
69597;BMP180;56802;51.184;-115.558;2022-09-24T07:12:12;86449.60;;;11.24
69597;BMP180;56802;51.184;-115.558;2022-09-24T07:14:41;86450.00;;;11.20
69597;BMP180;56802;51.184;-115.558;2022-09-24T07:17:11;86456.60;;;11.20
69597;BMP180;56802;51.184;-115.558;2022-09-24T07:19:41;86454.00;;;11.20
69597;BMP180;56802;51.184;-115.558;2022-09-24T07:22:10;86452.20;;;11.20
69597;BMP180;56802;51.184;-115.558;2022-09-24T07:24:39;86445.60;;;11.10
69597;BMP180;56802;51.184;-115.558;2022-09-24T07:27:09;86446.20;;;11.10
69597;BMP180;56802;51.184;-115.558;2022-09-24T07:29:38;86453.00;;;11.10
69597;BMP180;56802;51.184;-115.558;2022-09-24T07:32:07;86458.00;;;11.10
69597;BMP180;56802;51.184;-115.558;2022-09-24T07:34:37;86458.20;;;11.10
69597;BMP180;56802;51.184;-115.558;2022-09-24T07:37:06;86462.60;;;11.04
69597;BMP180;56802;51.184;-115.558;2022-09-24T07:39:36;86466.60;;;11.00
69597;BMP180;56802;51.184;-115.558;2022-09-24T07:42:05;86469.00;;;11.00
69597;BMP180;56802;51.184;-115.558;2022-09-24T07:44:35;86471.00;;;11.00
69597;BMP180;56802;51.184;-115.558;2022-09-24T07:47:05;86467.60;;;11.00
69597;BMP180;56802;51.184;-115.558;2022-09-24T07:49:39;86470.80;;;11.00
69597;BMP180;56802;51.184;-115.558;2022-09-24T07:52:11;86471.40;;;11.00
69597;BMP180;56802;51.184;-115.558;2022-09-24T07:54:40;86474.80;;;11.00
69597;BMP180;56802;51.184;-115.558;2022-09-24T07:57:11;86480.40;;;11.00
69597;BMP180;56802;51.184;-115.558;2022-09-24T07:59:41;86489.40;;;11.00
69597;BMP180;56802;51.184;-115.558;2022-09-24T08:02:17;86491.60;;;11.00
69597;BMP180;56802;51.184;-115.558;2022-09-24T08:04:46;86490.60;;;11.00
69597;BMP180;56802;51.184;-115.558;2022-09-24T08:07:16;86498.80;;;11.00
69597;BMP180;56802;51.184;-115.558;2022-09-24T08:09:46;86496.80;;;11.00
69597;BMP180;56802;51.184;-115.558;2022-09-24T08:12:15;86500.40;;;11.00
69597;BMP180;56802;51.184;-115.558;2022-09-24T08:14:45;86498.60;;;11.00
69597;BMP180;56802;51.184;-115.558;2022-09-24T08:17:14;86512.00;;;10.90
69597;BMP180;56802;51.184;-115.558;2022-09-24T08:19:44;86512.00;;;10.90
69597;BMP180;56802;51.184;-115.558;2022-09-24T08:22:14;86511.00;;;10.90
69597;BMP180;56802;51.184;-115.558;2022-09-24T08:24:44;86513.20;;;10.90
69597;BMP180;56802;51.184;-115.558;2022-09-24T08:27:14;86513.20;;;10.90
69597;BMP180;56802;51.184;-115.558;2022-09-24T08:29:44;86512.00;;;10.80
69597;BMP180;56802;51.184;-115.558;2022-09-24T08:32:13;86517.60;;;10.80
69597;BMP180;56802;51.184;-115.558;2022-09-24T08:34:43;86519.40;;;10.80
69597;BMP180;56802;51.184;-115.558;2022-09-24T08:37:13;86527.80;;;10.80
69597;BMP180;56802;51.184;-115.558;2022-09-24T08:39:42;86530.20;;;10.80
69597;BMP180;56802;51.184;-115.558;2022-09-24T08:45:10;86539.40;;;10.80
69597;BMP180;56802;51.184;-115.558;2022-09-24T08:48:11;86540.20;;;10.80
69597;BMP180;56802;51.184;-115.558;2022-09-24T08:50:55;86544.80;;;10.80
69597;BMP180;56802;51.184;-115.558;2022-09-24T08:56:03;86551.00;;;10.80
69597;BMP180;56802;51.184;-115.558;2022-09-24T09:01:50;86558.20;;;10.80
69597;BMP180;56802;51.184;-115.558;2022-09-24T09:04:59;86558.40;;;10.80
69597;BMP180;56802;51.184;-115.558;2022-09-24T09:10:38;86570.40;;;10.70
69597;BMP180;56802;51.184;-115.558;2022-09-24T09:13:25;86570.20;;;10.70
69597;BMP180;56802;51.184;-115.558;2022-09-24T09:16:16;86567.40;;;10.70
69597;BMP180;56802;51.184;-115.558;2022-09-24T09:18:54;86572.80;;;10.66
69597;BMP180;56802;51.184;-115.558;2022-09-24T09:24:01;86574.80;;;10.60
69597;BMP180;56802;51.184;-115.558;2022-09-24T09:26:30;86578.40;;;10.54
69597;BMP180;56802;51.184;-115.558;2022-09-24T09:29:01;86581.40;;;10.50
69597;BMP180;56802;51.184;-115.558;2022-09-24T09:44:26;86603.80;;;10.20
69597;BMP180;56802;51.184;-115.558;2022-09-24T09:47:24;86610.00;;;10.20
69597;BMP180;56802;51.184;-115.558;2022-09-24T09:49:57;86609.40;;;10.20
69597;BMP180;56802;51.184;-115.558;2022-09-24T09:52:36;86612.40;;;10.16
69597;BMP180;56802;51.184;-115.558;2022-09-24T09:55:18;86612.60;;;10.10
69597;BMP180;56802;51.184;-115.558;2022-09-24T09:57:48;86610.80;;;10.10
69597;BMP180;56802;51.184;-115.558;2022-09-24T10:00:33;86612.80;;;10.10
69597;BMP180;56802;51.184;-115.558;2022-09-24T10:03:03;86612.00;;;10.10
69597;BMP180;56802;51.184;-115.558;2022-09-24T10:05:33;86611.00;;;10.10
69597;BMP180;56802;51.184;-115.558;2022-09-24T10:08:02;86615.40;;;10.10
69597;BMP180;56802;51.184;-115.558;2022-09-24T10:10:32;86612.20;;;10.10
69597;BMP180;56802;51.184;-115.558;2022-09-24T10:13:11;86611.80;;;10.14
69597;BMP180;56802;51.184;-115.558;2022-09-24T10:15:57;86615.40;;;10.20
69597;BMP180;56802;51.184;-115.558;2022-09-24T10:18:45;86618.00;;;10.20
69597;BMP180;56802;51.184;-115.558;2022-09-24T10:21:36;86614.80;;;10.16
69597;BMP180;56802;51.184;-115.558;2022-09-24T10:24:19;86616.20;;;10.20
69597;BMP180;56802;51.184;-115.558;2022-09-24T10:26:50;86615.00;;;10.14
69597;BMP180;56802;51.184;-115.558;2022-09-24T10:29:38;86617.00;;;10.20
69597;BMP180;56802;51.184;-115.558;2022-09-24T10:32:27;86614.40;;;10.20
69597;BMP180;56802;51.184;-115.558;2022-09-24T10:35:17;86618.00;;;10.20
69597;BMP180;56802;51.184;-115.558;2022-09-24T10:37:53;86614.40;;;10.28
69597;BMP180;56802;51.184;-115.558;2022-09-24T10:40:26;86614.80;;;10.30
69597;BMP180;56802;51.184;-115.558;2022-09-24T10:43:03;86618.20;;;10.30
69597;BMP180;56802;51.184;-115.558;2022-09-24T10:45:53;86615.80;;;10.32
69597;BMP180;56802;51.184;-115.558;2022-09-24T10:51:24;86617.80;;;10.40
69597;BMP180;56802;51.184;-115.558;2022-09-24T10:56:59;86611.00;;;10.30
69597;BMP180;56802;51.184;-115.558;2022-09-24T11:00:00;86614.00;;;10.30
69597;BMP180;56802;51.184;-115.558;2022-09-24T11:03:02;86619.20;;;10.30
69597;BMP180;56802;51.184;-115.558;2022-09-24T11:06:01;86615.60;;;10.30
69597;BMP180;56802;51.184;-115.558;2022-09-24T11:09:01;86616.60;;;10.30
69597;BMP180;56802;51.184;-115.558;2022-09-24T11:21:22;86629.00;;;10.10
69597;BMP180;56802;51.184;-115.558;2022-09-24T11:26:56;86629.40;;;10.10
69597;BMP180;56802;51.184;-115.558;2022-09-24T11:29:46;86625.40;;;10.04
69597;BMP180;56802;51.184;-115.558;2022-09-24T11:38:34;86637.20;;;10.00
69597;BMP180;56802;51.184;-115.558;2022-09-24T11:41:51;86637.40;;;9.90
69597;BMP180;56802;51.184;-115.558;2022-09-24T11:47:43;86647.60;;;9.90
69597;BMP180;56802;51.184;-115.558;2022-09-24T11:56:49;86653.80;;;9.90
69597;BMP180;56802;51.184;-115.558;2022-09-24T12:00:02;86656.60;;;10.00
69597;BMP180;56802;51.184;-115.558;2022-09-24T12:03:05;86662.80;;;10.00
69597;BMP180;56802;51.184;-115.558;2022-09-24T12:06:00;86665.80;;;10.00
69597;BMP180;56802;51.184;-115.558;2022-09-24T12:08:40;86672.00;;;10.00
69597;BMP180;56802;51.184;-115.558;2022-09-24T12:11:31;86667.00;;;10.00
69597;BMP180;56802;51.184;-115.558;2022-09-24T12:14:18;86671.20;;;10.00
69597;BMP180;56802;51.184;-115.558;2022-09-24T12:16:53;86672.60;;;10.00
69597;BMP180;56802;51.184;-115.558;2022-09-24T12:20:13;86675.60;;;10.00
69597;BMP180;56802;51.184;-115.558;2022-09-24T12:22:50;86686.40;;;10.00
69597;BMP180;56802;51.184;-115.558;2022-09-24T12:25:23;86684.80;;;10.00
69597;BMP180;56802;51.184;-115.558;2022-09-24T12:27:55;86687.20;;;10.00
69597;BMP180;56802;51.184;-115.558;2022-09-24T12:31:01;86690.60;;;10.00
69597;BMP180;56802;51.184;-115.558;2022-09-24T12:37:08;86694.60;;;10.00
69597;BMP180;56802;51.184;-115.558;2022-09-24T12:39:53;86692.00;;;9.98
69597;BMP180;56802;51.184;-115.558;2022-09-24T12:42:36;86693.80;;;9.92
69597;BMP180;56802;51.184;-115.558;2022-09-24T12:45:16;86689.40;;;9.90
69597;BMP180;56802;51.184;-115.558;2022-09-24T12:48:11;86687.00;;;9.90
69597;BMP180;56802;51.184;-115.558;2022-09-24T12:50:42;86685.60;;;9.90
69597;BMP180;56802;51.184;-115.558;2022-09-24T12:53:24;86686.80;;;9.84
69597;BMP180;56802;51.184;-115.558;2022-09-24T12:56:03;86692.60;;;9.80
69597;BMP180;56802;51.184;-115.558;2022-09-24T12:58:41;86700.20;;;9.80
69597;BMP180;56802;51.184;-115.558;2022-09-24T13:01:31;86705.60;;;9.80
69597;BMP180;56802;51.184;-115.558;2022-09-24T13:06:45;86709.20;;;9.80
69597;BMP180;56802;51.184;-115.558;2022-09-24T13:09:38;86703.40;;;9.80
69597;BMP180;56802;51.184;-115.558;2022-09-24T13:12:18;86714.00;;;9.90
69597;BMP180;56802;51.184;-115.558;2022-09-24T13:15:19;86716.80;;;9.90
69597;BMP180;56802;51.184;-115.558;2022-09-24T13:20:41;86711.00;;;9.90
69597;BMP180;56802;51.184;-115.558;2022-09-24T13:26:03;86717.40;;;9.90
69597;BMP180;56802;51.184;-115.558;2022-09-24T13:36:51;86726.80;;;9.70
69597;BMP180;56802;51.184;-115.558;2022-09-24T13:42:24;86732.60;;;9.60
69597;BMP180;56802;51.184;-115.558;2022-09-24T13:45:00;86736.20;;;9.60
69597;BMP180;56802;51.184;-115.558;2022-09-24T13:47:47;86736.00;;;9.50
69597;BMP180;56802;51.184;-115.558;2022-09-24T13:50:30;86756.40;;;9.50
69597;BMP180;56802;51.184;-115.558;2022-09-24T13:53:17;86759.40;;;9.52
69597;BMP180;56802;51.184;-115.558;2022-09-24T13:56:02;86758.40;;;9.52
69597;BMP180;56802;51.184;-115.558;2022-09-24T13:58:36;86769.40;;;9.60
69597;BMP180;56802;51.184;-115.558;2022-09-24T14:01:26;86769.40;;;9.60
69597;BMP180;56802;51.184;-115.558;2022-09-24T14:04:26;86767.60;;;9.68
69597;BMP180;56802;51.184;-115.558;2022-09-24T14:06:57;86770.40;;;9.70
69597;BMP180;56802;51.184;-115.558;2022-09-24T14:09:32;86768.60;;;9.70
69597;BMP180;56802;51.184;-115.558;2022-09-24T14:12:14;86775.60;;;9.78
69597;BMP180;56802;51.184;-115.558;2022-09-24T14:14:46;86779.40;;;9.80
69597;BMP180;56802;51.184;-115.558;2022-09-24T14:17:19;86782.60;;;9.80
69597;BMP180;56802;51.184;-115.558;2022-09-24T14:19:56;86784.80;;;9.80
69597;BMP180;56802;51.184;-115.558;2022-09-24T14:22:39;86789.60;;;9.82
69597;BMP180;56802;51.184;-115.558;2022-09-24T14:25:16;86790.80;;;9.90
69597;BMP180;56802;51.184;-115.558;2022-09-24T14:27:50;86795.00;;;9.90
69597;BMP180;56802;51.184;-115.558;2022-09-24T14:30:22;86798.00;;;10.00
69597;BMP180;56802;51.184;-115.558;2022-09-24T14:33:02;86805.40;;;10.00
69597;BMP180;56802;51.184;-115.558;2022-09-24T14:35:36;86811.60;;;10.10
69597;BMP180;56802;51.184;-115.558;2022-09-24T14:41:12;86823.40;;;10.16
69597;BMP180;56802;51.184;-115.558;2022-09-24T14:44:06;86819.60;;;10.20
69597;BMP180;56802;51.184;-115.558;2022-09-24T14:46:46;86825.40;;;10.20
69597;BMP180;56802;51.184;-115.558;2022-09-24T14:49:43;86830.20;;;10.28
69597;BMP180;56802;51.184;-115.558;2022-09-24T14:52:32;86829.60;;;10.32
69597;BMP180;56802;51.184;-115.558;2022-09-24T14:55:20;86828.20;;;10.40
69597;BMP180;56802;51.184;-115.558;2022-09-24T14:57:50;86828.60;;;10.46
69597;BMP180;56802;51.184;-115.558;2022-09-24T15:00:45;86830.40;;;10.50
69597;BMP180;56802;51.184;-115.558;2022-09-24T15:03:22;86836.80;;;10.50
69597;BMP180;56802;51.184;-115.558;2022-09-24T15:06:13;86838.20;;;10.54
69597;BMP180;56802;51.184;-115.558;2022-09-24T15:08:58;86839.80;;;10.50
69597;BMP180;56802;51.184;-115.558;2022-09-24T15:11:36;86847.20;;;10.50
69597;BMP180;56802;51.184;-115.558;2022-09-24T15:14:21;86858.00;;;10.50
69597;BMP180;56802;51.184;-115.558;2022-09-24T15:17:06;86864.20;;;10.50
69597;BMP180;56802;51.184;-115.558;2022-09-24T15:19:36;86866.60;;;10.50
69597;BMP180;56802;51.184;-115.558;2022-09-24T15:22:10;86872.20;;;10.60
69597;BMP180;56802;51.184;-115.558;2022-09-24T15:24:40;86873.80;;;10.70
69597;BMP180;56802;51.184;-115.558;2022-09-24T15:27:22;86876.60;;;10.80
69597;BMP180;56802;51.184;-115.558;2022-09-24T15:29:53;86878.80;;;10.90
69597;BMP180;56802;51.184;-115.558;2022-09-24T15:32:25;86880.00;;;10.98
69597;BMP180;56802;51.184;-115.558;2022-09-24T15:34:55;86886.80;;;11.06
69597;BMP180;56802;51.184;-115.558;2022-09-24T15:37:27;86894.00;;;11.10
69597;BMP180;56802;51.184;-115.558;2022-09-24T15:42:36;86898.80;;;11.20
69597;BMP180;56802;51.184;-115.558;2022-09-24T15:45:18;86903.20;;;11.30
69597;BMP180;56802;51.184;-115.558;2022-09-24T15:47:50;86908.40;;;11.40
69597;BMP180;56802;51.184;-115.558;2022-09-24T15:50:23;86908.40;;;11.40
69597;BMP180;56802;51.184;-115.558;2022-09-24T15:52:57;86913.60;;;11.50
69597;BMP180;56802;51.184;-115.558;2022-09-24T15:55:28;86915.60;;;11.60
69597;BMP180;56802;51.184;-115.558;2022-09-24T15:57:58;86914.60;;;11.60
69597;BMP180;56802;51.184;-115.558;2022-09-24T16:00:29;86912.20;;;11.62
69597;BMP180;56802;51.184;-115.558;2022-09-24T16:03:00;86923.20;;;11.70
69597;BMP180;56802;51.184;-115.558;2022-09-24T16:05:30;86926.20;;;11.80
69597;BMP180;56802;51.184;-115.558;2022-09-24T16:08:00;86933.80;;;11.86
69597;BMP180;56802;51.184;-115.558;2022-09-24T16:10:29;86937.40;;;11.90